createdAt,value
2017-08-09T00:00:15.003Z,0
2017-08-09T00:01:23.989Z,0
2017-08-09T00:02:33.167Z,0
2017-08-09T00:03:42.307Z,0
2017-08-09T00:04:51.574Z,0
2017-08-09T00:06:00.709Z,0
2017-08-09T00:07:10.238Z,0
2017-08-09T00:08:19.260Z,0
2017-08-09T00:09:28.231Z,0
2017-08-09T00:10:37.194Z,0
2017-08-09T00:11:46.164Z,0
2017-08-09T00:12:55.125Z,0
2017-08-09T00:14:04.090Z,0
2017-08-09T00:15:13.051Z,0
2017-08-09T00:16:22.012Z,0
2017-08-09T00:17:31.299Z,0
2017-08-09T00:18:40.636Z,0
2017-08-09T00:19:49.605Z,0
2017-08-09T00:20:58.571Z,0
2017-08-09T00:22:07.532Z,0
2017-08-09T00:23:16.493Z,0
2017-08-09T00:24:25.896Z,0
2017-08-09T00:25:34.862Z,0
2017-08-09T00:26:43.820Z,0
2017-08-09T00:27:52.773Z,0
2017-08-09T00:29:01.734Z,0
2017-08-09T00:30:10.712Z,0
2017-08-09T00:31:19.674Z,0
2017-08-09T00:32:28.631Z,0
2017-08-09T00:33:37.597Z,0
2017-08-09T00:34:46.561Z,0
2017-08-09T00:35:55.521Z,0
2017-08-09T00:37:04.479Z,0
2017-08-09T00:38:13.437Z,0
2017-08-09T00:39:22.397Z,0
2017-08-09T00:40:31.364Z,0
2017-08-09T00:41:40.317Z,0
2017-08-09T00:42:49.600Z,0
2017-08-09T00:43:58.555Z,0
2017-08-09T00:45:07.516Z,0
2017-08-09T00:46:16.477Z,0
2017-08-09T00:47:25.433Z,0
2017-08-09T00:48:34.393Z,0
2017-08-09T00:49:43.362Z,0
2017-08-09T00:50:52.325Z,0
2017-08-09T00:52:01.612Z,0
2017-08-09T00:53:10.585Z,0
2017-08-09T00:54:19.549Z,0
2017-08-09T00:55:28.502Z,0
2017-08-09T00:56:37.453Z,0
2017-08-09T00:57:46.413Z,0
2017-08-09T00:58:55.373Z,0
2017-08-09T01:00:04.331Z,0
2017-08-09T01:01:13.286Z,0
2017-08-09T01:02:22.238Z,0
2017-08-09T01:03:31.198Z,0
2017-08-09T01:04:40.158Z,0
2017-08-09T01:05:49.122Z,0
2017-08-09T01:06:58.076Z,0
2017-08-09T01:08:07.043Z,0
2017-08-09T01:09:16.005Z,0
2017-08-09T01:10:24.965Z,0
2017-08-09T01:11:33.920Z,0
2017-08-09T01:12:42.880Z,0
2017-08-09T01:13:51.842Z,0
2017-08-09T01:15:00.808Z,0
2017-08-09T01:16:09.772Z,0
2017-08-09T01:17:18.740Z,0
2017-08-09T01:18:27.704Z,0
2017-08-09T01:19:36.661Z,0
2017-08-09T01:20:45.624Z,0
2017-08-09T01:21:54.589Z,0
2017-08-09T01:23:03.548Z,0
2017-08-09T01:24:12.936Z,0
2017-08-09T01:25:22.298Z,0
2017-08-09T01:26:31.291Z,0
2017-08-09T01:27:40.572Z,0
2017-08-09T01:28:49.530Z,0
2017-08-09T01:29:58.499Z,0
2017-08-09T01:31:07.460Z,0
2017-08-09T01:32:16.427Z,0
2017-08-09T01:33:25.392Z,0
2017-08-09T01:34:34.356Z,0
2017-08-09T01:35:43.324Z,0
2017-08-09T01:36:52.284Z,0
2017-08-09T01:38:01.252Z,0
2017-08-09T01:39:10.220Z,0
2017-08-09T01:40:19.217Z,0
2017-08-09T01:41:28.186Z,0
2017-08-09T01:42:37.142Z,0
2017-08-09T01:43:46.108Z,0
2017-08-09T01:44:55.079Z,0
2017-08-09T01:46:04.381Z,0
2017-08-09T01:47:13.676Z,0
2017-08-09T01:48:22.635Z,0
2017-08-09T01:49:31.623Z,0
2017-08-09T01:50:40.598Z,0
2017-08-09T01:51:49.559Z,0
2017-08-09T01:52:58.517Z,0
2017-08-09T01:54:07.467Z,0
2017-08-09T01:55:16.422Z,0
2017-08-09T01:56:25.385Z,0
2017-08-09T01:57:34.350Z,0
2017-08-09T01:58:43.312Z,0
2017-08-09T01:59:52.268Z,0
2017-08-09T02:01:01.226Z,0
2017-08-09T02:02:10.189Z,0
2017-08-09T02:03:19.148Z,0
2017-08-09T02:04:28.108Z,0
2017-08-09T02:05:37.066Z,0
2017-08-09T02:06:46.033Z,0
2017-08-09T02:07:54.998Z,0
2017-08-09T02:09:03.984Z,0
2017-08-09T02:10:13.275Z,0
2017-08-09T02:11:22.235Z,0
2017-08-09T02:12:31.189Z,0
2017-08-09T02:13:40.170Z,0
2017-08-09T02:14:49.149Z,0
2017-08-09T02:15:58.109Z,0
2017-08-09T02:17:07.083Z,0
2017-08-09T02:18:16.043Z,0
2017-08-09T02:19:25.002Z,0
2017-08-09T02:20:34.290Z,0
2017-08-09T02:21:43.261Z,0
2017-08-09T02:22:52.223Z,0
2017-08-09T02:24:01.177Z,0
2017-08-09T02:25:10.146Z,0
2017-08-09T02:26:19.103Z,0
2017-08-09T02:27:28.065Z,0
2017-08-09T02:28:37.027Z,0
2017-08-09T02:29:45.995Z,0
2017-08-09T02:30:54.956Z,0
2017-08-09T02:32:03.917Z,0
2017-08-09T02:33:12.874Z,0
2017-08-09T02:34:21.838Z,0
2017-08-09T02:35:30.804Z,0
2017-08-09T02:36:40.083Z,0
2017-08-09T02:37:49.041Z,0
2017-08-09T02:38:58.343Z,0
2017-08-09T02:40:07.322Z,0
2017-08-09T02:41:16.620Z,0
2017-08-09T02:42:26.260Z,0
2017-08-09T02:43:35.225Z,0
2017-08-09T02:44:44.201Z,0
2017-08-09T02:45:53.163Z,0
2017-08-09T02:47:02.127Z,0
2017-08-09T02:48:11.092Z,0
2017-08-09T02:49:20.056Z,0
2017-08-09T02:50:29.019Z,0
2017-08-09T02:51:37.980Z,0
2017-08-09T02:52:46.939Z,0
2017-08-09T02:53:55.911Z,0
2017-08-09T02:55:04.862Z,0
2017-08-09T02:56:13.855Z,0
2017-08-09T02:57:23.168Z,0
2017-08-09T02:58:32.154Z,0
2017-08-09T02:59:41.114Z,0
2017-08-09T03:00:50.075Z,0
2017-08-09T03:01:59.040Z,0
2017-08-09T03:03:08.005Z,0
2017-08-09T03:04:16.957Z,0
2017-08-09T03:05:25.909Z,0
2017-08-09T03:06:34.865Z,0
2017-08-09T03:07:43.831Z,0
2017-08-09T03:08:53.112Z,0
2017-08-09T03:10:02.368Z,0
2017-08-09T03:11:11.326Z,0
2017-08-09T03:12:20.282Z,0
2017-08-09T03:13:29.244Z,0
2017-08-09T03:14:38.206Z,0
2017-08-09T03:15:47.165Z,0
2017-08-09T03:16:56.126Z,0
2017-08-09T03:18:05.420Z,0
2017-08-09T03:19:14.381Z,0
2017-08-09T03:20:23.338Z,0
2017-08-09T03:21:32.287Z,0
2017-08-09T03:22:41.245Z,0
2017-08-09T03:23:50.206Z,0
2017-08-09T03:24:59.161Z,0
2017-08-09T03:26:08.113Z,0
2017-08-09T03:27:17.076Z,0
2017-08-09T03:28:26.364Z,0
2017-08-09T03:29:35.331Z,0
2017-08-09T03:30:44.297Z,0
2017-08-09T03:31:53.581Z,0
2017-08-09T03:33:02.545Z,0
2017-08-09T03:34:11.518Z,0
2017-08-09T03:35:20.503Z,0
2017-08-09T03:36:29.461Z,0
2017-08-09T03:37:38.421Z,0
2017-08-09T03:38:47.380Z,0
2017-08-09T03:39:56.335Z,0
2017-08-09T03:41:05.287Z,0
2017-08-09T03:42:14.241Z,0
2017-08-09T03:43:23.529Z,0
2017-08-09T03:44:32.491Z,0
2017-08-09T03:45:41.446Z,0
2017-08-09T03:46:50.397Z,0
2017-08-09T03:47:59.353Z,0
2017-08-09T03:49:08.318Z,0
2017-08-09T03:50:17.272Z,0
2017-08-09T03:51:26.239Z,0
2017-08-09T03:52:35.201Z,0
2017-08-09T03:53:44.169Z,0
2017-08-09T03:54:53.155Z,0
2017-08-09T03:56:02.110Z,0
2017-08-09T03:57:11.087Z,5
2017-08-09T03:58:20.042Z,5
2017-08-09T03:59:28.998Z,0
2017-08-09T04:00:37.965Z,0
2017-08-09T04:01:46.927Z,0
2017-08-09T04:02:55.884Z,0
2017-08-09T04:04:04.842Z,0
2017-08-09T04:05:13.812Z,0
2017-08-09T04:06:22.774Z,0
2017-08-09T04:07:31.734Z,0
2017-08-09T04:08:40.697Z,0
2017-08-09T04:09:49.654Z,0
2017-08-09T04:10:58.617Z,0
2017-08-09T04:12:07.606Z,0
2017-08-09T04:13:16.900Z,0
2017-08-09T04:14:26.189Z,0
2017-08-09T04:15:35.140Z,0
2017-08-09T04:16:44.104Z,0
2017-08-09T04:17:53.063Z,0
2017-08-09T04:19:02.027Z,0
2017-08-09T04:20:10.986Z,5
2017-08-09T04:21:19.941Z,5
2017-08-09T04:22:28.901Z,0
2017-08-09T04:23:37.856Z,0
2017-08-09T04:24:46.823Z,0
2017-08-09T04:25:55.791Z,0
2017-08-09T04:27:04.751Z,0
2017-08-09T04:28:13.714Z,5
2017-08-09T04:29:22.686Z,5
2017-08-09T04:30:31.651Z,5
2017-08-09T04:31:40.711Z,5
2017-08-09T04:32:49.667Z,5
2017-08-09T04:33:58.624Z,5
2017-08-09T04:35:07.911Z,5
2017-08-09T04:36:16.869Z,5
2017-08-09T04:37:26.170Z,5
2017-08-09T04:38:35.130Z,5
2017-08-09T04:39:44.087Z,5
2017-08-09T04:40:53.042Z,5
2017-08-09T04:42:02.006Z,5
2017-08-09T04:43:10.985Z,5
2017-08-09T04:44:19.946Z,5
2017-08-09T04:45:28.909Z,5
2017-08-09T04:46:37.859Z,5
2017-08-09T04:47:46.813Z,5
2017-08-09T04:48:55.776Z,5
2017-08-09T04:50:04.738Z,5
2017-08-09T04:51:13.704Z,5
2017-08-09T04:52:22.667Z,5
2017-08-09T04:53:31.637Z,5
2017-08-09T04:54:40.606Z,5
2017-08-09T04:55:49.563Z,5
2017-08-09T04:56:58.520Z,5
2017-08-09T04:58:07.482Z,5
2017-08-09T04:59:16.440Z,5
2017-08-09T05:00:25.400Z,5
2017-08-09T05:01:34.360Z,10
2017-08-09T05:02:43.327Z,10
2017-08-09T05:03:52.292Z,10
2017-08-09T05:05:01.254Z,10
2017-08-09T05:06:10.205Z,15
2017-08-09T05:07:19.162Z,15
2017-08-09T05:08:28.126Z,15
2017-08-09T05:09:37.084Z,15
2017-08-09T05:10:46.056Z,20
2017-08-09T05:11:55.010Z,20
2017-08-09T05:13:03.974Z,20
2017-08-09T05:14:12.936Z,20
2017-08-09T05:15:21.889Z,20
2017-08-09T05:16:30.853Z,20
2017-08-09T05:17:39.807Z,20
2017-08-09T05:18:48.764Z,20
2017-08-09T05:19:57.720Z,25
2017-08-09T05:21:06.677Z,25
2017-08-09T05:22:15.640Z,25
2017-08-09T05:23:24.600Z,25
2017-08-09T05:24:33.575Z,20
2017-08-09T05:25:42.540Z,20
2017-08-09T05:26:51.507Z,20
2017-08-09T05:28:00.491Z,20
2017-08-09T05:29:09.442Z,20
2017-08-09T05:30:18.409Z,20
2017-08-09T05:31:27.374Z,20
2017-08-09T05:32:36.338Z,20
2017-08-09T05:33:45.294Z,20
2017-08-09T05:34:54.257Z,20
2017-08-09T05:36:03.555Z,20
2017-08-09T05:37:12.513Z,20
2017-08-09T05:38:21.475Z,20
2017-08-09T05:39:30.437Z,20
2017-08-09T05:40:39.400Z,20
2017-08-09T05:41:48.355Z,20
2017-08-09T05:42:57.316Z,20
2017-08-09T05:44:06.285Z,25
2017-08-09T05:45:15.242Z,25
2017-08-09T05:46:24.207Z,30
2017-08-09T05:47:33.165Z,30
2017-08-09T05:48:42.117Z,20
2017-08-09T05:49:51.092Z,20
2017-08-09T05:51:00.059Z,20
2017-08-09T05:52:09.352Z,25
2017-08-09T05:53:18.304Z,25
2017-08-09T05:54:27.260Z,25
2017-08-09T05:55:36.215Z,25
2017-08-09T05:56:45.172Z,20
2017-08-09T05:57:54.133Z,20
2017-08-09T05:59:03.086Z,25
2017-08-09T06:00:12.055Z,25
2017-08-09T06:01:21.025Z,20
2017-08-09T06:02:29.974Z,25
2017-08-09T06:03:38.943Z,25
2017-08-09T06:04:47.901Z,25
2017-08-09T06:05:56.851Z,30
2017-08-09T06:07:05.810Z,30
2017-08-09T06:08:14.770Z,30
2017-08-09T06:09:23.733Z,30
2017-08-09T06:10:32.691Z,30
2017-08-09T06:11:41.650Z,30
2017-08-09T06:12:50.606Z,30
2017-08-09T06:13:59.567Z,30
2017-08-09T06:15:09.180Z,30
2017-08-09T06:16:18.145Z,30
2017-08-09T06:17:27.121Z,30
2017-08-09T06:18:36.076Z,30
2017-08-09T06:19:45.032Z,35
2017-08-09T06:20:53.983Z,35
2017-08-09T06:22:02.951Z,35
2017-08-09T06:23:11.908Z,35
2017-08-09T06:24:20.864Z,35
2017-08-09T06:25:29.830Z,35
2017-08-09T06:26:38.797Z,35
2017-08-09T06:27:47.759Z,35
2017-08-09T06:28:56.713Z,35
2017-08-09T06:30:05.672Z,35
2017-08-09T06:31:14.634Z,35
2017-08-09T06:32:23.943Z,35
2017-08-09T06:33:32.918Z,35
2017-08-09T06:34:41.876Z,35
2017-08-09T06:35:50.893Z,35
2017-08-09T06:36:59.852Z,35
2017-08-09T06:38:08.808Z,35
2017-08-09T06:39:18.094Z,35
2017-08-09T06:40:27.068Z,35
2017-08-09T06:41:36.034Z,35
2017-08-09T06:42:45.703Z,35
2017-08-09T06:43:55.078Z,35
2017-08-09T06:45:04.078Z,35
2017-08-09T06:46:13.109Z,40
2017-08-09T06:47:22.210Z,35
2017-08-09T06:48:33.075Z,35
2017-08-09T06:49:42.130Z,40
2017-08-09T06:50:51.135Z,40
2017-08-09T06:52:00.102Z,45
2017-08-09T06:53:09.126Z,45
2017-08-09T06:54:18.090Z,50
2017-08-09T06:55:27.070Z,50
2017-08-09T06:56:36.247Z,50
2017-08-09T06:57:45.243Z,50
2017-08-09T06:58:54.306Z,50
2017-08-09T07:00:03.548Z,55
2017-08-09T07:01:12.540Z,60
2017-08-09T07:02:21.818Z,65
2017-08-09T07:03:30.846Z,65
2017-08-09T07:04:39.817Z,60
2017-08-09T07:05:48.779Z,65
2017-08-09T07:06:57.737Z,65
2017-08-09T07:08:06.699Z,60
2017-08-09T07:09:15.665Z,60
2017-08-09T07:10:24.624Z,60
2017-08-09T07:11:33.585Z,55
2017-08-09T07:12:42.551Z,60
2017-08-09T07:13:51.510Z,60
2017-08-09T07:15:00.474Z,55
2017-08-09T07:16:09.436Z,50
2017-08-09T07:17:18.392Z,50
2017-08-09T07:18:27.369Z,55
2017-08-09T07:19:36.328Z,65
2017-08-09T07:20:45.292Z,70
2017-08-09T07:21:54.465Z,75
2017-08-09T07:23:03.638Z,70
2017-08-09T07:24:12.811Z,65
2017-08-09T07:25:21.767Z,60
2017-08-09T07:26:30.734Z,55
2017-08-09T07:27:39.692Z,60
2017-08-09T07:28:48.647Z,60
2017-08-09T07:29:57.608Z,70
2017-08-09T07:31:06.570Z,70
2017-08-09T07:32:15.526Z,60
2017-08-09T07:33:24.635Z,60
2017-08-09T07:34:33.598Z,70
2017-08-09T07:35:42.554Z,65
2017-08-09T07:36:52.604Z,65
2017-08-09T07:38:01.578Z,75
2017-08-09T07:39:10.545Z,75
2017-08-09T07:40:19.611Z,75
2017-08-09T07:41:28.734Z,80
2017-08-09T07:42:37.768Z,80
2017-08-09T07:43:46.889Z,75
2017-08-09T07:44:55.857Z,65
2017-08-09T07:46:04.813Z,65
2017-08-09T07:47:13.829Z,65
2017-08-09T07:48:22.956Z,70
2017-08-09T07:49:31.971Z,65
2017-08-09T07:50:41.040Z,65
2017-08-09T07:51:50.136Z,75
2017-08-09T07:52:59.280Z,70
2017-08-09T07:54:08.363Z,75
2017-08-09T07:55:17.484Z,70
2017-08-09T07:56:26.536Z,65
2017-08-09T07:57:35.635Z,65
2017-08-09T07:58:44.713Z,70
2017-08-09T07:59:54.003Z,70
2017-08-09T08:01:02.968Z,70
2017-08-09T08:02:12.001Z,65
2017-08-09T08:03:21.082Z,65
2017-08-09T08:04:30.058Z,65
2017-08-09T08:05:39.137Z,70
2017-08-09T08:06:48.128Z,65
2017-08-09T08:07:57.111Z,60
2017-08-09T08:09:06.238Z,65
2017-08-09T08:10:15.230Z,65
2017-08-09T08:11:24.276Z,65
2017-08-09T08:12:33.345Z,65
2017-08-09T08:13:42.360Z,65
2017-08-09T08:14:51.329Z,70
2017-08-09T08:16:00.284Z,75
2017-08-09T08:17:09.345Z,65
2017-08-09T08:18:18.314Z,65
2017-08-09T08:19:27.478Z,65
2017-08-09T08:20:36.598Z,65
2017-08-09T08:21:45.605Z,70
2017-08-09T08:22:54.639Z,75
2017-08-09T08:24:03.597Z,85
2017-08-09T08:25:12.567Z,80
2017-08-09T08:26:21.624Z,75
2017-08-09T08:27:30.625Z,75
2017-08-09T08:28:39.629Z,80
2017-08-09T08:29:48.677Z,75
2017-08-09T08:30:57.637Z,75
2017-08-09T08:32:06.784Z,75
2017-08-09T08:33:15.830Z,75
2017-08-09T08:34:24.802Z,75
2017-08-09T08:35:33.766Z,75
2017-08-09T08:36:42.736Z,75
2017-08-09T08:37:51.709Z,75
2017-08-09T08:39:00.673Z,75
2017-08-09T08:40:09.765Z,75
2017-08-09T08:41:18.843Z,75
2017-08-09T08:42:28.114Z,75
2017-08-09T08:43:37.093Z,75
2017-08-09T08:44:46.067Z,75
2017-08-09T08:45:55.150Z,75
2017-08-09T08:47:04.117Z,80
2017-08-09T08:48:13.333Z,75
2017-08-09T08:49:22.292Z,70
2017-08-09T08:50:31.248Z,70
2017-08-09T08:51:40.211Z,65
2017-08-09T08:52:49.420Z,60
2017-08-09T08:53:58.760Z,60
2017-08-09T08:55:08.199Z,55
2017-08-09T08:56:17.547Z,55
2017-08-09T08:57:26.561Z,70
2017-08-09T08:58:35.608Z,75
2017-08-09T08:59:44.620Z,70
2017-08-09T09:00:53.707Z,60
2017-08-09T09:02:02.677Z,50
2017-08-09T09:03:11.714Z,50
2017-08-09T09:04:20.755Z,50
2017-08-09T09:05:29.809Z,55
2017-08-09T09:06:38.835Z,50
2017-08-09T09:07:47.825Z,50
2017-08-09T09:08:57.186Z,50
2017-08-09T09:10:06.207Z,50
2017-08-09T09:11:15.240Z,50
2017-08-09T09:12:24.329Z,50
2017-08-09T09:13:33.350Z,50
2017-08-09T09:14:42.360Z,45
2017-08-09T09:15:51.353Z,50
2017-08-09T09:17:00.325Z,50
2017-08-09T09:18:09.320Z,45
2017-08-09T09:19:18.330Z,45
2017-08-09T09:20:27.315Z,45
2017-08-09T09:21:36.303Z,50
2017-08-09T09:22:45.288Z,50
2017-08-09T09:23:54.272Z,50
2017-08-09T09:25:03.258Z,50
2017-08-09T09:26:12.233Z,50
2017-08-09T09:27:21.219Z,50
2017-08-09T09:28:30.199Z,50
2017-08-09T09:29:39.190Z,50
2017-08-09T09:30:48.179Z,50
2017-08-09T09:31:57.163Z,50
2017-08-09T09:33:06.478Z,50
2017-08-09T09:34:15.476Z,50
2017-08-09T09:35:24.470Z,50
2017-08-09T09:36:33.464Z,50
2017-08-09T09:37:42.446Z,50
2017-08-09T09:38:51.437Z,50
2017-08-09T09:40:00.423Z,55
2017-08-09T09:41:09.410Z,55
2017-08-09T09:42:18.418Z,55
2017-08-09T09:43:27.415Z,55
2017-08-09T09:44:36.410Z,55
2017-08-09T09:45:45.396Z,55
2017-08-09T09:46:54.381Z,55
2017-08-09T09:48:03.365Z,55
2017-08-09T09:49:12.362Z,55
2017-08-09T09:50:21.675Z,55
2017-08-09T09:51:30.658Z,55
2017-08-09T09:52:39.653Z,55
2017-08-09T09:53:48.648Z,55
2017-08-09T09:54:57.954Z,55
2017-08-09T09:56:06.944Z,55
2017-08-09T09:57:15.962Z,55
2017-08-09T09:58:24.942Z,55
2017-08-09T09:59:34.243Z,55
2017-08-09T10:00:43.224Z,55
2017-08-09T10:01:52.208Z,50
2017-08-09T10:03:01.190Z,25
2017-08-09T10:04:10.151Z,55
2017-08-09T10:05:19.110Z,55
2017-08-09T10:06:28.077Z,55
2017-08-09T10:07:37.038Z,55
2017-08-09T10:08:46.000Z,60
2017-08-09T10:09:54.965Z,60
2017-08-09T10:11:03.934Z,55
2017-08-09T10:12:12.897Z,55
2017-08-09T10:13:21.910Z,55
2017-08-09T10:14:30.873Z,55
2017-08-09T10:15:39.839Z,55
2017-08-09T10:16:48.800Z,55
2017-08-09T10:17:57.792Z,55
2017-08-09T10:19:06.780Z,60
2017-08-09T10:20:15.764Z,65
2017-08-09T10:21:24.752Z,60
2017-08-09T10:22:33.737Z,80
2017-08-09T10:23:42.717Z,65
2017-08-09T10:24:51.707Z,60
2017-08-09T10:26:00.696Z,60
2017-08-09T10:27:09.656Z,60
2017-08-09T10:28:18.620Z,60
2017-08-09T10:29:27.574Z,60
2017-08-09T10:30:36.537Z,60
2017-08-09T10:31:45.503Z,40
2017-08-09T10:32:54.784Z,35
2017-08-09T10:34:03.746Z,70
2017-08-09T10:35:12.717Z,40
2017-08-09T10:36:21.708Z,40
2017-08-09T10:37:30.669Z,60
2017-08-09T10:38:39.651Z,75
2017-08-09T10:39:48.612Z,60
2017-08-09T10:40:57.575Z,35
2017-08-09T10:42:07.625Z,50
2017-08-09T10:43:16.782Z,60
2017-08-09T10:44:30.506Z,80
2017-08-09T10:45:41.231Z,65
2017-08-09T10:46:50.316Z,80
2017-08-09T10:47:59.371Z,95
2017-08-09T10:49:08.386Z,70
2017-08-09T10:50:17.997Z,60
2017-08-09T10:51:27.177Z,65
2017-08-09T10:52:36.239Z,60
2017-08-09T10:53:45.423Z,65
2017-08-09T10:54:54.382Z,70
2017-08-09T10:56:03.447Z,65
2017-08-09T10:57:12.638Z,60
2017-08-09T10:58:21.987Z,65
2017-08-09T10:59:31.102Z,45
2017-08-09T11:00:40.203Z,30
2017-08-09T11:01:49.456Z,25
2017-08-09T11:02:58.587Z,65
2017-08-09T11:04:07.743Z,50
2017-08-09T11:05:16.830Z,35
2017-08-09T11:06:25.886Z,50
2017-08-09T11:07:35.503Z,80
2017-08-09T11:08:44.773Z,70
2017-08-09T11:09:53.791Z,75
2017-08-09T11:11:02.864Z,45
2017-08-09T11:12:11.886Z,30
2017-08-09T11:13:20.903Z,55
2017-08-09T11:14:30.000Z,75
2017-08-09T11:15:38.961Z,85
2017-08-09T11:16:47.926Z,85
2017-08-09T11:17:56.906Z,70
2017-08-09T11:19:05.866Z,65
2017-08-09T11:20:14.840Z,60
2017-08-09T11:21:24.264Z,65
2017-08-09T11:22:33.605Z,65
2017-08-09T11:23:42.922Z,60
2017-08-09T11:24:52.158Z,65
2017-08-09T11:26:01.164Z,80
2017-08-09T11:27:10.248Z,45
2017-08-09T11:28:19.565Z,40
2017-08-09T11:29:28.526Z,55
2017-08-09T11:30:37.489Z,70
2017-08-09T11:31:46.532Z,90
2017-08-09T11:32:55.602Z,75
2017-08-09T11:34:04.622Z,75
2017-08-09T11:35:13.617Z,70
2017-08-09T11:36:22.620Z,70
2017-08-09T11:37:31.605Z,70
2017-08-09T11:38:40.590Z,65
2017-08-09T11:39:49.573Z,60
2017-08-09T11:40:58.543Z,60
2017-08-09T11:42:07.578Z,60
2017-08-09T11:43:16.600Z,60
2017-08-09T11:44:25.614Z,55
2017-08-09T11:45:34.697Z,60
2017-08-09T11:46:43.686Z,65
2017-08-09T11:47:52.680Z,60
2017-08-09T11:49:01.684Z,60
2017-08-09T11:50:10.642Z,50
2017-08-09T11:51:19.614Z,35
2017-08-09T11:52:28.651Z,35
2017-08-09T11:53:37.634Z,75
2017-08-09T11:54:46.639Z,75
2017-08-09T11:55:55.606Z,70
2017-08-09T11:57:04.566Z,70
2017-08-09T11:58:13.544Z,65
2017-08-09T11:59:22.624Z,70
2017-08-09T12:00:31.640Z,75
2017-08-09T12:01:40.686Z,60
2017-08-09T12:02:49.667Z,55
2017-08-09T12:03:59.055Z,55
2017-08-09T12:05:08.083Z,25
2017-08-09T12:06:17.087Z,25
2017-08-09T12:07:26.373Z,55
2017-08-09T12:08:35.679Z,65
2017-08-09T12:09:44.650Z,70
2017-08-09T12:10:53.611Z,60
2017-08-09T12:12:02.574Z,55
2017-08-09T12:13:11.557Z,55
2017-08-09T12:14:20.692Z,55
2017-08-09T12:15:29.665Z,55
2017-08-09T12:16:38.711Z,60
2017-08-09T12:17:47.709Z,70
2017-08-09T12:18:56.764Z,65
2017-08-09T12:20:05.934Z,45
2017-08-09T12:21:15.002Z,55
2017-08-09T12:22:24.132Z,55
2017-08-09T12:23:33.206Z,55
2017-08-09T12:24:42.281Z,55
2017-08-09T12:25:51.351Z,45
2017-08-09T12:27:00.497Z,30
2017-08-09T12:28:09.543Z,25
2017-08-09T12:29:18.559Z,40
2017-08-09T12:30:27.600Z,70
2017-08-09T12:31:36.631Z,75
2017-08-09T12:32:45.599Z,75
2017-08-09T12:33:54.567Z,45
2017-08-09T12:35:03.748Z,65
2017-08-09T12:36:13.049Z,70
2017-08-09T12:37:22.128Z,70
2017-08-09T12:38:31.095Z,70
2017-08-09T12:39:40.057Z,60
2017-08-09T12:40:49.024Z,50
2017-08-09T12:41:57.999Z,60
2017-08-09T12:43:06.963Z,60
2017-08-09T12:44:16.270Z,75
2017-08-09T12:45:25.242Z,70
2017-08-09T12:46:34.221Z,75
2017-08-09T12:47:43.176Z,60
2017-08-09T12:48:52.149Z,60
2017-08-09T12:50:01.102Z,60
2017-08-09T12:51:10.072Z,60
2017-08-09T12:52:19.029Z,60
2017-08-09T12:53:28.000Z,30
2017-08-09T12:54:36.964Z,25
2017-08-09T12:55:45.930Z,20
2017-08-09T12:56:54.896Z,25
2017-08-09T12:58:03.859Z,35
2017-08-09T12:59:12.813Z,40
2017-08-09T13:00:21.775Z,70
2017-08-09T13:01:30.746Z,60
2017-08-09T13:02:39.720Z,60
2017-08-09T13:03:48.697Z,40
2017-08-09T13:04:57.657Z,45
2017-08-09T13:06:06.621Z,25
2017-08-09T13:07:15.584Z,25
2017-08-09T13:08:24.555Z,20
2017-08-09T13:09:33.528Z,30
2017-08-09T13:10:42.495Z,40
2017-08-09T13:11:51.769Z,50
2017-08-09T13:13:00.834Z,50
2017-08-09T13:14:10.000Z,45
2017-08-09T13:15:19.117Z,45
2017-08-09T13:16:28.145Z,45
2017-08-09T13:17:37.473Z,40
2017-08-09T13:18:46.519Z,70
2017-08-09T13:19:55.573Z,80
2017-08-09T13:21:04.667Z,75
2017-08-09T13:22:13.701Z,70
2017-08-09T13:23:22.786Z,35
2017-08-09T13:24:31.835Z,40
2017-08-09T13:25:40.898Z,30
2017-08-09T13:26:49.922Z,30
2017-08-09T13:27:58.947Z,65
2017-08-09T13:29:08.403Z,30
2017-08-09T13:30:17.506Z,55
2017-08-09T13:31:26.777Z,70
2017-08-09T13:32:35.886Z,65
2017-08-09T13:33:45.004Z,55
2017-08-09T13:34:54.128Z,55
2017-08-09T13:36:03.234Z,65
2017-08-09T13:37:12.204Z,65
2017-08-09T13:38:21.202Z,65
2017-08-09T13:39:30.252Z,65
2017-08-09T13:40:39.296Z,65
2017-08-09T13:41:48.346Z,65
2017-08-09T13:42:57.379Z,25
2017-08-09T13:44:06.391Z,50
2017-08-09T13:45:15.429Z,25
2017-08-09T13:46:24.487Z,25
2017-08-09T13:47:33.656Z,50
2017-08-09T13:48:42.711Z,20
2017-08-09T13:49:51.759Z,25
2017-08-09T13:51:00.811Z,40
2017-08-09T13:52:09.867Z,40
2017-08-09T13:53:18.887Z,25
2017-08-09T13:54:28.297Z,60
2017-08-09T13:55:37.398Z,65
2017-08-09T13:56:46.437Z,65
2017-08-09T13:57:55.582Z,70
2017-08-09T13:59:04.626Z,65
2017-08-09T14:00:13.640Z,65
2017-08-09T14:01:22.695Z,65
2017-08-09T14:02:31.788Z,60
2017-08-09T14:03:40.842Z,60
2017-08-09T14:04:49.830Z,60
2017-08-09T14:05:58.789Z,65
2017-08-09T14:07:07.752Z,60
2017-08-09T14:08:16.773Z,25
2017-08-09T14:09:26.101Z,25
2017-08-09T14:10:35.091Z,20
2017-08-09T14:11:44.084Z,70
2017-08-09T14:12:53.069Z,65
2017-08-09T14:14:02.056Z,20
2017-08-09T14:15:11.043Z,15
2017-08-09T14:16:20.040Z,40
2017-08-09T14:17:29.021Z,60
2017-08-09T14:18:38.008Z,65
2017-08-09T14:19:46.996Z,70
2017-08-09T14:20:55.986Z,75
2017-08-09T14:22:05.010Z,70
2017-08-09T14:23:14.003Z,70
2017-08-09T14:24:22.989Z,65
2017-08-09T14:25:31.991Z,30
2017-08-09T14:26:40.982Z,25
2017-08-09T14:27:49.964Z,30
2017-08-09T14:28:58.961Z,55
2017-08-09T14:30:07.940Z,25
2017-08-09T14:31:16.935Z,35
2017-08-09T14:32:26.244Z,25
2017-08-09T14:33:35.237Z,25
2017-08-09T14:34:44.218Z,25
2017-08-09T14:35:53.213Z,45
2017-08-09T14:37:02.204Z,40
2017-08-09T14:38:11.203Z,25
2017-08-09T14:39:20.190Z,20
2017-08-09T14:40:29.180Z,25
2017-08-09T14:41:38.175Z,50
2017-08-09T14:42:47.176Z,55
2017-08-09T14:43:56.169Z,60
2017-08-09T14:45:05.155Z,65
2017-08-09T14:46:14.121Z,65
2017-08-09T14:47:23.075Z,65
2017-08-09T14:48:32.036Z,70
2017-08-09T14:49:41.332Z,75
2017-08-09T14:50:50.630Z,50
2017-08-09T14:51:59.600Z,40
2017-08-09T14:53:08.977Z,35
2017-08-09T14:54:20.093Z,30
2017-08-09T14:55:30.314Z,25
2017-08-09T14:56:39.468Z,30
2017-08-09T14:57:48.428Z,25
2017-08-09T14:58:57.397Z,20
2017-08-09T15:00:06.364Z,20
2017-08-09T15:01:15.337Z,35
2017-08-09T15:02:24.302Z,55
2017-08-09T15:03:33.264Z,50
2017-08-09T15:04:42.222Z,50
2017-08-09T15:05:51.186Z,45
2017-08-09T15:07:00.155Z,50
2017-08-09T15:08:09.139Z,55
2017-08-09T15:09:18.108Z,55
2017-08-09T15:10:27.081Z,60
2017-08-09T15:11:36.041Z,60
2017-08-09T15:12:45.006Z,55
2017-08-09T15:13:54.989Z,55
2017-08-09T15:15:04.057Z,60
2017-08-09T15:16:14.975Z,30
2017-08-09T15:17:24.174Z,55
2017-08-09T15:18:33.608Z,45
2017-08-09T15:19:44.576Z,55
2017-08-09T15:20:55.280Z,45
2017-08-09T15:22:04.466Z,25
2017-08-09T15:23:14.864Z,35
2017-08-09T15:24:23.921Z,20
2017-08-09T15:25:34.207Z,40
2017-08-09T15:26:46.109Z,25
2017-08-09T15:27:55.789Z,40
2017-08-09T15:29:05.405Z,40
2017-08-09T15:30:14.546Z,40
2017-08-09T15:31:23.571Z,40
2017-08-09T15:32:32.638Z,40
2017-08-09T15:33:41.742Z,40
2017-08-09T15:34:50.807Z,40
2017-08-09T15:35:59.909Z,45
2017-08-09T15:37:08.880Z,45
2017-08-09T15:38:17.845Z,45
2017-08-09T15:39:26.847Z,40
2017-08-09T15:40:35.815Z,45
2017-08-09T15:41:44.851Z,45
2017-08-09T15:42:53.815Z,40
2017-08-09T15:44:02.779Z,45
2017-08-09T15:45:12.110Z,45
2017-08-09T15:46:21.068Z,35
2017-08-09T15:47:30.030Z,35
2017-08-09T15:48:39.023Z,35
2017-08-09T15:49:47.984Z,30
